createdAt,value
2018-05-12T00:01:43.627Z,28.60
2018-05-12T00:04:12.964Z,25.12
2018-05-12T00:06:43.017Z,24.83
2018-05-12T00:09:12.313Z,25.73
2018-05-12T00:11:41.622Z,24.80
2018-05-12T00:14:10.922Z,25.30
2018-05-12T00:16:40.208Z,26.80
2018-05-12T00:19:09.508Z,28.00
2018-05-12T00:21:38.861Z,25.10
2018-05-12T00:24:08.128Z,23.67
2018-05-12T00:26:37.434Z,24.48
2018-05-12T00:29:06.739Z,27.00
2018-05-12T00:31:36.039Z,27.23
2018-05-12T00:34:06.184Z,23.23
2018-05-12T00:36:35.523Z,27.50
2018-05-12T00:39:06.447Z,27.35
2018-05-12T00:41:35.742Z,24.77
2018-05-12T00:44:05.805Z,22.77
2018-05-12T00:46:35.620Z,23.42
2018-05-12T00:49:04.857Z,24.23
2018-05-12T00:51:34.183Z,24.60
2018-05-12T00:54:03.485Z,23.73
2018-05-12T00:56:33.553Z,24.00
2018-05-12T00:59:02.910Z,25.48
2018-05-12T01:01:32.997Z,26.20
2018-05-12T01:04:02.300Z,28.70
2018-05-12T01:06:31.599Z,23.58
2018-05-12T01:09:00.914Z,25.58
2018-05-12T01:11:30.782Z,24.80
2018-05-12T01:14:00.101Z,26.73
2018-05-12T01:16:29.392Z,24.85
2018-05-12T01:18:58.711Z,22.77
2018-05-12T01:21:28.031Z,21.75
2018-05-12T01:23:57.315Z,25.75
2018-05-12T01:26:26.630Z,28.50
2018-05-12T01:28:55.934Z,25.23
2018-05-12T01:31:25.245Z,26.92
2018-05-12T01:33:55.308Z,25.70
2018-05-12T01:36:24.633Z,26.40
2018-05-12T01:38:53.910Z,27.70
2018-05-12T01:41:23.291Z,27.90
2018-05-12T01:43:52.582Z,24.35
2018-05-12T01:46:22.669Z,25.17
2018-05-12T01:48:51.988Z,27.40
2018-05-12T01:51:22.036Z,23.98
2018-05-12T01:53:51.343Z,27.20
2018-05-12T01:56:20.659Z,26.77
2018-05-12T01:58:49.960Z,25.42
2018-05-12T02:01:19.237Z,23.50
2018-05-12T02:03:48.537Z,26.55
2018-05-12T02:06:18.250Z,26.67
2018-05-12T02:08:47.551Z,25.25
2018-05-12T02:11:16.844Z,25.67
2018-05-12T02:13:46.146Z,27.58
2018-05-12T02:16:15.449Z,27.83
2018-05-12T02:18:44.745Z,28.80
2018-05-12T02:21:14.051Z,28.12
2018-05-12T02:23:43.368Z,28.55
2018-05-12T02:26:12.668Z,30.85
2018-05-12T02:28:41.977Z,29.37
2018-05-12T02:31:11.291Z,34.95
2018-05-12T02:33:40.589Z,31.20
2018-05-12T02:36:09.885Z,31.15
2018-05-12T02:38:39.186Z,34.83
2018-05-12T02:41:08.504Z,33.88
2018-05-12T02:43:38.417Z,32.83
2018-05-12T02:46:07.732Z,29.23
2018-05-12T02:48:38.005Z,28.10
2018-05-12T02:51:07.312Z,35.03
2018-05-12T02:53:36.606Z,31.52
2018-05-12T02:56:05.924Z,30.42
2018-05-12T02:58:35.239Z,28.80
2018-05-12T03:01:04.516Z,32.88
2018-05-12T03:03:33.845Z,28.77
2018-05-12T03:06:03.146Z,28.02
2018-05-12T03:08:32.470Z,27.92
2018-05-12T03:11:02.541Z,30.98
2018-05-12T03:13:31.914Z,32.67
2018-05-12T03:16:01.211Z,30.55
2018-05-12T03:18:30.533Z,32.20
2018-05-12T03:20:59.829Z,25.35
2018-05-12T03:23:29.131Z,26.23
2018-05-12T03:25:58.444Z,31.17
2018-05-12T03:28:27.746Z,28.60
2018-05-12T03:30:57.058Z,29.33
2018-05-12T03:33:26.335Z,30.25
2018-05-12T03:35:55.664Z,30.05
2018-05-12T03:38:24.959Z,29.30
2018-05-12T03:40:54.268Z,35.42
2018-05-12T03:43:23.572Z,30.88
2018-05-12T03:45:52.870Z,32.00
2018-05-12T03:48:22.182Z,30.88
2018-05-12T03:50:51.481Z,32.05
2018-05-12T03:53:20.819Z,41.22
2018-05-12T03:55:50.140Z,30.67
2018-05-12T03:58:19.486Z,31.50
2018-05-12T04:00:48.784Z,30.95
2018-05-12T04:03:18.931Z,30.10
2018-05-12T04:06:06.617Z,31.92
2018-05-12T04:08:53.706Z,35.78
2018-05-12T04:11:40.726Z,33.38
2018-05-12T04:14:10.037Z,34.25
2018-05-12T04:16:39.345Z,33.97
2018-05-12T04:19:08.665Z,32.25
2018-05-12T04:21:37.949Z,37.10
2018-05-12T04:24:07.278Z,40.00
2018-05-12T04:26:36.567Z,35.90
2018-05-12T04:29:05.852Z,43.45
2018-05-12T04:31:35.145Z,43.50
2018-05-12T04:34:04.460Z,46.47
2018-05-12T04:36:33.758Z,42.78
2018-05-12T04:39:03.046Z,47.65
2018-05-12T04:41:32.447Z,47.88
2018-05-12T04:44:01.735Z,40.70
2018-05-12T04:46:31.031Z,44.03
2018-05-12T04:49:00.348Z,44.72
2018-05-12T04:51:29.655Z,45.53
2018-05-12T04:53:59.045Z,48.87
2018-05-12T04:56:28.371Z,40.00
2018-05-12T04:58:57.657Z,42.33
2018-05-12T05:01:26.955Z,45.85
2018-05-12T05:03:56.271Z,45.30
2018-05-12T05:06:25.586Z,48.10
2018-05-12T05:08:54.891Z,41.88
2018-05-12T05:11:24.193Z,47.83
2018-05-12T05:13:53.501Z,48.13
2018-05-12T05:16:22.803Z,47.35
2018-05-12T05:18:52.877Z,48.13
2018-05-12T05:21:22.184Z,45.42
2018-05-12T05:23:51.478Z,45.95
2018-05-12T05:26:20.780Z,46.25
2018-05-12T05:28:50.072Z,49.72
2018-05-12T05:31:19.367Z,48.17
2018-05-12T05:33:48.657Z,58.20
2018-05-12T05:36:17.958Z,53.40
2018-05-12T05:38:47.257Z,53.75
2018-05-12T05:41:16.559Z,49.45
2018-05-12T05:43:45.881Z,45.65
2018-05-12T05:46:15.184Z,49.90
2018-05-12T05:48:44.482Z,44.10
2018-05-12T05:51:13.787Z,46.45
2018-05-12T05:53:43.083Z,45.95
2018-05-12T05:56:12.382Z,46.00
2018-05-12T05:58:41.685Z,45.75
2018-05-12T06:01:10.991Z,45.30
2018-05-12T06:03:40.314Z,47.50
2018-05-12T06:06:09.618Z,46.42
2018-05-12T06:08:38.904Z,41.45
2018-05-12T06:11:08.220Z,45.15
2018-05-12T06:13:38.500Z,47.28
2018-05-12T06:16:07.806Z,45.78
2018-05-12T06:18:37.140Z,44.88
2018-05-12T06:21:06.453Z,48.22
2018-05-12T06:23:35.777Z,42.90
2018-05-12T06:26:05.838Z,42.90
2018-05-12T06:28:35.146Z,41.90
2018-05-12T06:31:04.477Z,41.08
2018-05-12T06:33:33.820Z,46.70
2018-05-12T06:36:03.078Z,43.10
2018-05-12T06:38:32.371Z,39.28
2018-05-12T06:41:01.710Z,45.97
2018-05-12T06:43:31.013Z,48.22
2018-05-12T06:46:00.320Z,47.25
2018-05-12T06:48:29.649Z,51.42
2018-05-12T06:50:58.946Z,46.78
2018-05-12T06:53:28.247Z,43.30
2018-05-12T06:55:57.582Z,44.10
2018-05-12T06:58:26.881Z,48.80
2018-05-12T07:00:56.209Z,40.12
2018-05-12T07:03:25.512Z,39.45
2018-05-12T07:05:54.799Z,42.95
2018-05-12T07:08:24.900Z,40.60
2018-05-12T07:10:54.184Z,42.92
2018-05-12T07:13:23.462Z,44.95
2018-05-12T07:15:52.809Z,51.30
2018-05-12T07:18:22.097Z,44.08
2018-05-12T07:20:51.418Z,41.30
2018-05-12T07:23:20.700Z,42.58
2018-05-12T07:25:50.023Z,45.97
2018-05-12T07:28:20.102Z,42.33
2018-05-12T07:30:49.429Z,45.05
2018-05-12T07:33:18.732Z,40.22
2018-05-12T07:35:48.836Z,39.72
2018-05-12T07:38:18.174Z,43.85
2018-05-12T07:40:47.605Z,41.40
2018-05-12T07:43:17.662Z,43.03
2018-05-12T07:45:46.960Z,41.70
2018-05-12T07:48:16.251Z,39.58
2018-05-12T07:50:45.544Z,47.20
2018-05-12T07:53:14.848Z,41.88
2018-05-12T07:55:44.167Z,40.38
2018-05-12T07:58:13.473Z,40.97
2018-05-12T08:00:42.782Z,41.67
2018-05-12T08:03:12.842Z,39.78
2018-05-12T08:05:42.154Z,39.70
2018-05-12T08:08:12.035Z,40.17
2018-05-12T08:10:42.285Z,41.72
2018-05-12T08:13:11.580Z,42.95
2018-05-12T08:15:40.884Z,38.70
2018-05-12T08:18:10.212Z,37.97
2018-05-12T08:20:39.573Z,41.72
2018-05-12T08:23:08.916Z,38.15
2018-05-12T08:25:38.233Z,35.90
2018-05-12T08:28:07.571Z,37.85
2018-05-12T08:30:37.620Z,35.33
2018-05-12T08:33:06.927Z,34.05
2018-05-12T08:35:36.208Z,37.70
2018-05-12T08:38:05.520Z,34.70
2018-05-12T08:40:34.888Z,38.83
2018-05-12T08:43:04.126Z,36.15
2018-05-12T08:45:33.488Z,39.67
2018-05-12T08:48:03.552Z,39.85
2018-05-12T08:50:32.867Z,38.30
2018-05-12T08:53:02.208Z,37.03
2018-05-12T08:55:32.434Z,37.90
2018-05-12T08:58:01.786Z,38.60
2018-05-12T09:00:31.096Z,34.05
2018-05-12T09:03:00.471Z,31.48
2018-05-12T09:05:29.818Z,57.30
2018-05-12T09:08:00.119Z,34.90
2018-05-12T09:10:29.697Z,35.58
2018-05-12T09:12:59.026Z,37.95
2018-05-12T09:15:28.311Z,30.75
2018-05-12T09:17:57.646Z,30.20
2018-05-12T09:20:27.753Z,34.67
2018-05-12T09:22:57.026Z,36.80
2018-05-12T09:25:26.327Z,30.85
2018-05-12T09:27:55.946Z,34.97
2018-05-12T09:30:25.234Z,37.55
2018-05-12T09:32:54.535Z,33.67
2018-05-12T09:35:23.836Z,38.90
2018-05-12T09:37:53.745Z,39.67
2018-05-12T09:40:23.024Z,28.08
2018-05-12T09:42:52.350Z,26.25
2018-05-12T09:45:21.642Z,25.75
2018-05-12T09:47:50.931Z,24.33
2018-05-12T09:50:20.263Z,27.17
2018-05-12T09:52:49.565Z,27.48
2018-05-12T09:55:18.859Z,21.35
2018-05-12T09:57:48.161Z,24.58
2018-05-12T10:00:17.451Z,18.67
2018-05-12T10:02:46.756Z,20.02
2018-05-12T10:05:16.063Z,22.60
2018-05-12T10:07:45.371Z,21.87
2018-05-12T10:10:14.670Z,17.25
2018-05-12T10:12:43.973Z,19.55
2018-05-12T10:15:13.345Z,21.37
2018-05-12T10:17:42.623Z,17.83
2018-05-12T10:20:11.930Z,19.08
2018-05-12T10:22:42.066Z,18.60
2018-05-12T10:25:11.424Z,26.27
2018-05-12T10:27:40.739Z,18.08
2018-05-12T10:30:11.370Z,19.95
2018-05-12T10:32:40.865Z,20.17
2018-05-12T10:35:10.926Z,19.92
2018-05-12T10:40:09.039Z,19.70
2018-05-12T10:42:38.350Z,16.50
2018-05-12T10:45:09.054Z,17.00
2018-05-12T10:47:38.354Z,17.90
2018-05-12T10:50:07.671Z,14.80
2018-05-12T10:52:37.021Z,17.37
2018-05-12T10:55:07.096Z,18.67
2018-05-12T10:57:36.397Z,16.08
2018-05-12T11:00:05.760Z,19.83
2018-05-12T11:02:35.913Z,13.73
2018-05-12T11:05:05.244Z,16.12
2018-05-12T11:07:34.545Z,17.77
2018-05-12T11:10:04.436Z,13.85
2018-05-12T11:12:33.733Z,16.48
2018-05-12T11:15:03.178Z,12.45
2018-05-12T11:17:33.230Z,11.70
2018-05-12T11:20:02.551Z,12.15
2018-05-12T11:22:31.852Z,14.07
2018-05-12T11:25:01.160Z,13.48
2018-05-12T11:27:30.474Z,14.38
2018-05-12T11:29:59.845Z,17.93
2018-05-12T11:32:29.155Z,12.48
2018-05-12T11:34:58.440Z,12.80
2018-05-12T11:37:27.811Z,11.88
2018-05-12T11:39:57.131Z,13.30
2018-05-12T11:42:26.419Z,10.80
2018-05-12T11:44:55.734Z,9.52
2018-05-12T11:47:25.027Z,9.40
2018-05-12T11:49:54.325Z,10.57
2018-05-12T11:52:23.673Z,11.67
2018-05-12T11:54:52.954Z,10.68
2018-05-12T11:57:22.251Z,11.43
2018-05-12T11:59:51.537Z,9.27
2018-05-12T12:02:20.829Z,11.23
2018-05-12T12:04:50.149Z,11.90
2018-05-12T12:07:19.454Z,10.77
2018-05-12T12:09:48.759Z,7.90
2018-05-12T12:12:18.062Z,8.53
2018-05-12T12:14:47.337Z,8.37
2018-05-12T12:17:16.641Z,6.10
2018-05-12T12:19:45.930Z,7.30
2018-05-12T12:22:15.986Z,5.70
2018-05-12T12:24:45.284Z,8.20
2018-05-12T12:29:43.376Z,5.30
2018-05-12T12:32:12.665Z,6.25
2018-05-12T12:37:10.835Z,6.85
2018-05-12T12:39:40.132Z,4.80
2018-05-12T12:42:10.168Z,6.00
2018-05-12T12:44:39.487Z,4.70
2018-05-12T12:47:08.782Z,5.80
2018-05-12T12:49:38.119Z,5.90
2018-05-12T12:52:07.415Z,6.07
2018-05-12T12:54:37.571Z,5.30
2018-05-12T12:57:06.862Z,6.00
2018-05-12T12:59:36.732Z,5.25
2018-05-12T13:02:06.077Z,5.50
2018-05-12T13:04:36.160Z,6.60
2018-05-12T13:07:05.454Z,5.80
2018-05-12T13:09:34.805Z,5.45
2018-05-12T13:12:04.244Z,6.23
2018-05-12T13:14:33.449Z,5.37
2018-05-12T13:17:02.811Z,5.40
2018-05-12T13:19:32.113Z,5.77
2018-05-12T13:22:01.467Z,4.97
2018-05-12T13:24:30.732Z,5.03
2018-05-12T13:27:00.051Z,4.82
2018-05-12T13:29:29.371Z,4.50
2018-05-12T13:31:58.711Z,5.37
2018-05-12T13:34:28.816Z,5.90
2018-05-12T13:36:58.094Z,5.87
2018-05-12T13:39:27.396Z,5.43
2018-05-12T13:41:56.698Z,4.25
2018-05-12T13:44:26.871Z,5.00
2018-05-12T13:46:56.157Z,6.35
2018-05-12T13:49:25.469Z,4.95
2018-05-12T13:51:54.762Z,4.85
2018-05-12T13:54:24.044Z,5.00
2018-05-12T13:56:54.179Z,4.95
2018-05-12T13:59:23.397Z,6.13
2018-05-12T14:01:52.752Z,4.13
2018-05-12T14:04:22.044Z,5.00
2018-05-12T14:06:51.350Z,5.10
2018-05-12T14:09:20.644Z,4.93
2018-05-12T14:11:49.949Z,5.15
2018-05-12T14:14:19.251Z,9.27
2018-05-12T14:16:48.580Z,4.87
2018-05-12T14:19:17.882Z,5.72
2018-05-12T14:21:47.970Z,4.90
2018-05-12T14:24:17.272Z,7.10
2018-05-12T14:26:47.357Z,10.33
2018-05-12T14:29:16.670Z,5.00
2018-05-12T14:31:46.032Z,4.50
2018-05-12T14:34:15.335Z,3.30
2018-05-12T14:39:13.466Z,5.15
2018-05-12T14:41:42.769Z,4.90
2018-05-12T14:44:12.086Z,5.20
2018-05-12T14:46:42.177Z,4.40
2018-05-12T14:49:11.497Z,6.80
2018-05-12T14:51:40.833Z,3.70
2018-05-12T14:54:10.910Z,4.10
2018-05-12T14:56:40.219Z,5.67
2018-05-12T15:04:07.114Z,4.07
2018-05-12T15:06:36.409Z,4.83
2018-05-12T15:09:06.491Z,5.10
2018-05-12T15:11:36.782Z,4.87
2018-05-12T15:14:07.239Z,4.50
2018-05-12T15:16:36.809Z,6.90
2018-05-12T15:19:12.012Z,5.70
2018-05-12T15:21:42.635Z,4.40
2018-05-12T15:24:14.323Z,7.30
2018-05-12T15:26:45.019Z,4.75
2018-05-12T15:29:14.606Z,6.13
2018-05-12T15:31:47.410Z,7.35
2018-05-12T15:34:17.622Z,5.85
2018-05-12T15:36:46.935Z,6.37
2018-05-12T15:39:16.223Z,6.30
2018-05-12T15:41:45.535Z,6.12
2018-05-12T15:44:14.907Z,5.87
2018-05-12T15:46:44.143Z,5.60
2018-05-12T15:49:13.459Z,8.70
2018-05-12T15:51:43.795Z,7.45
2018-05-12T15:54:13.858Z,5.87
2018-05-12T15:56:43.188Z,5.65
2018-05-12T15:59:13.661Z,8.30
2018-05-12T16:01:44.019Z,5.50
2018-05-12T16:04:14.277Z,6.62
2018-05-12T16:06:45.239Z,7.25
2018-05-12T16:09:15.309Z,6.60
2018-05-12T16:11:44.637Z,7.50
2018-05-12T16:14:13.921Z,6.72
2018-05-12T16:16:43.217Z,7.07
2018-05-12T16:19:12.504Z,6.47
2018-05-12T16:21:41.868Z,6.60
2018-05-12T16:24:11.101Z,5.45
2018-05-12T16:26:40.414Z,6.47
2018-05-12T16:29:09.765Z,6.25
2018-05-12T16:31:39.085Z,6.20
2018-05-12T16:34:08.362Z,6.40
2018-05-12T16:36:38.427Z,5.90
2018-05-12T16:39:07.721Z,5.75
2018-05-12T16:41:37.007Z,5.90
2018-05-12T16:44:06.327Z,5.30
2018-05-12T16:46:35.607Z,5.05
2018-05-12T16:49:04.886Z,5.87
2018-05-12T16:51:34.200Z,6.30
2018-05-12T16:54:03.476Z,5.50
2018-05-12T16:56:32.780Z,5.12
2018-05-12T16:59:02.123Z,6.97
2018-05-12T17:01:33.176Z,6.12
2018-05-12T17:04:02.472Z,6.37
2018-05-12T17:06:33.729Z,5.53
2018-05-12T17:09:03.045Z,5.27
2018-05-12T17:11:33.294Z,4.60
2018-05-12T17:14:03.479Z,8.20
2018-05-12T17:16:32.826Z,4.80
2018-05-12T17:19:02.892Z,5.22
2018-05-12T17:21:32.190Z,4.40
2018-05-12T17:24:01.563Z,5.10
2018-05-12T17:26:31.961Z,6.90
2018-05-12T17:29:02.088Z,5.62
2018-05-12T17:31:32.435Z,5.47
2018-05-12T17:34:01.742Z,6.15
2018-05-12T17:36:31.107Z,5.55
2018-05-12T17:39:00.429Z,5.68
2018-05-12T17:41:29.728Z,6.65
2018-05-12T17:43:59.025Z,6.25
2018-05-12T17:46:29.397Z,5.45
2018-05-12T17:48:58.709Z,7.25
2018-05-12T17:51:28.000Z,6.97
2018-05-12T17:53:58.131Z,7.80
2018-05-12T17:56:27.497Z,7.35
2018-05-12T17:58:56.816Z,6.55
2018-05-12T18:01:26.099Z,13.13
2018-05-12T18:03:55.501Z,8.65
2018-05-12T18:06:24.763Z,28.80
2018-05-12T18:08:55.427Z,20.50
2018-05-12T18:11:25.043Z,29.50
2018-05-12T18:13:54.901Z,21.35
2018-05-12T18:16:26.698Z,12.37
2018-05-12T18:18:56.000Z,7.80
2018-05-12T18:21:26.109Z,6.87
2018-05-12T18:23:56.224Z,6.72
2018-05-12T18:26:26.342Z,7.60
2018-05-12T18:28:56.477Z,7.50
2018-05-12T18:31:25.887Z,6.70
2018-05-12T18:33:55.165Z,7.18
2018-05-12T18:36:25.467Z,9.65
2018-05-12T18:38:54.791Z,7.60
2018-05-12T18:41:24.867Z,8.52
2018-05-12T18:43:54.163Z,8.98
2018-05-12T18:46:23.481Z,7.15
2018-05-12T18:48:52.770Z,9.20
2018-05-12T18:51:22.058Z,7.97
2018-05-12T18:53:51.354Z,9.02
2018-05-12T18:56:26.615Z,10.57
2018-05-12T18:58:56.032Z,9.25
2018-05-12T19:01:25.316Z,11.12
2018-05-12T19:03:54.608Z,9.35
2018-05-12T19:06:23.904Z,9.38
2018-05-12T19:08:53.190Z,9.18
2018-05-12T19:11:22.478Z,10.23
2018-05-12T19:13:51.779Z,10.57
2018-05-12T19:16:21.081Z,13.90
2018-05-12T19:18:50.395Z,15.35
2018-05-12T19:21:19.687Z,15.13
2018-05-12T19:23:48.980Z,24.30
2018-05-12T19:26:18.294Z,37.42
2018-05-12T19:28:47.590Z,26.15
2018-05-12T19:31:16.963Z,16.92
2018-05-12T19:33:46.193Z,12.48
2018-05-12T19:36:16.264Z,12.32
2018-05-12T19:38:46.358Z,11.02
2018-05-12T19:41:15.666Z,10.13
2018-05-12T19:43:45.004Z,11.90
2018-05-12T19:46:14.261Z,11.50
2018-05-12T19:48:43.575Z,11.68
2018-05-12T19:51:12.886Z,14.10
2018-05-12T19:53:42.216Z,51.50
2018-05-12T19:56:11.521Z,18.87
2018-05-12T19:58:40.888Z,17.55
2018-05-12T20:01:11.822Z,13.27
2018-05-12T20:03:41.204Z,13.77
2018-05-12T20:06:10.516Z,26.23
2018-05-12T20:08:40.308Z,19.67
2018-05-12T20:11:10.567Z,32.28
2018-05-12T20:13:39.907Z,15.07
2018-05-12T20:16:09.196Z,14.77
2018-05-12T20:18:38.691Z,16.90
2018-05-12T20:21:08.872Z,15.32
2018-05-12T20:23:38.324Z,13.65
2018-05-12T20:26:07.900Z,16.08
2018-05-12T20:28:37.515Z,12.30
2018-05-12T20:31:07.120Z,11.75
2018-05-12T20:33:36.986Z,14.15
2018-05-12T20:36:06.432Z,17.12
2018-05-12T20:38:39.205Z,13.52
2018-05-12T20:41:09.577Z,14.70
2018-05-12T20:43:39.059Z,22.92
2018-05-12T20:46:08.362Z,13.32
2018-05-12T20:48:38.454Z,25.05
2018-05-12T20:51:07.825Z,19.87
2018-05-12T20:53:37.132Z,15.93
2018-05-12T20:56:06.515Z,14.50
2018-05-12T20:58:38.526Z,20.40
2018-05-12T21:01:07.954Z,19.80
2018-05-12T21:03:37.993Z,17.60
2018-05-12T21:06:07.320Z,16.87
2018-05-12T21:08:36.654Z,18.87
2018-05-12T21:11:05.966Z,18.70
2018-05-12T21:13:35.278Z,27.35
2018-05-12T21:16:04.575Z,29.05
2018-05-12T21:18:38.367Z,18.25
2018-05-12T21:21:07.679Z,15.95
2018-05-12T21:23:39.511Z,13.43
2018-05-12T21:26:09.055Z,12.60
2018-05-12T21:28:39.252Z,13.25
2018-05-12T21:31:08.546Z,12.50
2018-05-12T21:33:37.879Z,17.20
2018-05-12T21:36:07.182Z,12.75
2018-05-12T21:38:36.505Z,11.82
2018-05-12T21:41:05.781Z,10.40
2018-05-12T21:43:35.893Z,13.65
2018-05-12T21:46:05.215Z,12.07
2018-05-12T21:48:34.489Z,10.98
2018-05-12T21:51:03.804Z,9.85
2018-05-12T21:53:33.859Z,9.98
2018-05-12T21:56:03.170Z,7.57
2018-05-12T21:58:32.475Z,6.85
2018-05-12T22:01:01.796Z,7.70
2018-05-12T22:03:31.083Z,7.65
2018-05-12T22:06:00.405Z,7.95
2018-05-12T22:08:29.706Z,7.87
2018-05-12T22:10:59.815Z,10.32
2018-05-12T22:13:29.103Z,11.98
2018-05-12T22:15:59.089Z,7.12
2018-05-12T22:18:28.434Z,9.50
2018-05-12T22:20:57.688Z,6.75
2018-05-12T22:23:27.015Z,8.57
2018-05-12T22:25:56.325Z,7.30
2018-05-12T22:28:25.576Z,6.35
2018-05-12T22:30:54.865Z,6.55
2018-05-12T22:33:24.147Z,7.25
2018-05-12T22:35:54.240Z,6.15
2018-05-12T22:38:23.544Z,7.35
2018-05-12T22:40:52.848Z,8.10
2018-05-12T22:43:22.169Z,6.45
2018-05-12T22:45:51.461Z,6.22
2018-05-12T22:48:20.763Z,8.18
2018-05-12T22:50:50.039Z,6.30
2018-05-12T22:53:19.362Z,7.30
2018-05-12T22:55:48.645Z,8.60
2018-05-12T22:58:17.943Z,8.85
2018-05-12T23:00:47.260Z,7.65
2018-05-12T23:03:16.560Z,11.15
2018-05-12T23:05:45.849Z,8.27
2018-05-12T23:08:15.135Z,6.85
2018-05-12T23:10:44.443Z,7.07
2018-05-12T23:13:13.750Z,7.03
2018-05-12T23:15:43.041Z,6.10
2018-05-12T23:18:12.345Z,6.97
2018-05-12T23:20:41.643Z,6.55
2018-05-12T23:23:10.942Z,7.87
2018-05-12T23:25:40.247Z,7.15
2018-05-12T23:28:09.642Z,6.97
2018-05-12T23:30:39.106Z,7.15
2018-05-12T23:33:08.510Z,7.68
2018-05-12T23:35:37.843Z,8.32
2018-05-12T23:38:07.131Z,7.72
2018-05-12T23:40:36.425Z,8.70
2018-05-12T23:43:05.704Z,9.07
2018-05-12T23:45:35.765Z,7.30
2018-05-12T23:48:05.095Z,10.70
2018-05-12T23:50:34.424Z,9.57
2018-05-12T23:53:03.764Z,7.97
2018-05-12T23:55:33.089Z,8.10
2018-05-12T23:58:02.369Z,8.00
